createdAt,value
2023-03-30T00:00:01.085Z,6.43
2023-03-30T00:02:31.075Z,4.17
2023-03-30T00:05:03.363Z,6.77
2023-03-30T00:07:30.520Z,5.87
2023-03-30T00:09:57.537Z,4.10
2023-03-30T00:12:24.145Z,6.20
2023-03-30T00:14:50.665Z,4.83
2023-03-30T00:17:17.690Z,6.40
2023-03-30T00:19:44.226Z,6.13
2023-03-30T00:22:11.593Z,5.43
2023-03-30T00:24:38.074Z,4.97
2023-03-30T00:27:04.646Z,4.43
2023-03-30T00:29:31.227Z,4.30
2023-03-30T00:31:57.873Z,5.77
2023-03-30T00:34:24.406Z,4.13
2023-03-30T00:36:53.479Z,4.93
2023-03-30T00:39:23.259Z,4.87
2023-03-30T00:41:49.787Z,4.03
2023-03-30T00:44:35.170Z,4.20
2023-03-30T00:47:01.646Z,6.27
2023-03-30T00:49:28.190Z,3.50
2023-03-30T00:51:54.729Z,3.70
2023-03-30T00:54:21.478Z,5.50
2023-03-30T00:56:48.429Z,3.47
2023-03-30T00:59:14.995Z,4.73
2023-03-30T01:01:41.958Z,5.93
2023-03-30T01:04:08.699Z,5.13
2023-03-30T01:06:35.228Z,4.63
2023-03-30T01:09:01.703Z,4.93
2023-03-30T01:11:28.288Z,4.70
2023-03-30T01:13:58.709Z,9.33
2023-03-30T01:16:25.495Z,4.90
2023-03-30T01:19:06.235Z,5.63
2023-03-30T01:21:55.686Z,4.97
2023-03-30T01:24:28.593Z,6.17
2023-03-30T01:26:56.897Z,8.67
2023-03-30T01:29:42.055Z,6.30
2023-03-30T01:32:17.025Z,7.33
2023-03-30T01:34:43.709Z,6.27
2023-03-30T01:37:10.747Z,6.80
2023-03-30T01:39:42.051Z,5.70
2023-03-30T01:42:09.388Z,7.60
2023-03-30T01:44:44.168Z,8.00
2023-03-30T01:47:29.129Z,8.57
2023-03-30T01:50:15.688Z,5.70
2023-03-30T01:52:42.645Z,10.33
2023-03-30T01:55:10.618Z,9.43
2023-03-30T01:57:40.305Z,10.40
2023-03-30T02:00:13.203Z,11.60
2023-03-30T02:02:41.347Z,11.83
2023-03-30T02:05:08.109Z,9.60
2023-03-30T02:07:34.603Z,13.93
2023-03-30T02:10:01.950Z,9.33
2023-03-30T02:12:30.175Z,8.07
2023-03-30T02:14:57.899Z,10.77
2023-03-30T02:17:24.814Z,10.90
2023-03-30T02:19:51.529Z,12.97
2023-03-30T02:22:18.675Z,12.70
2023-03-30T02:24:45.446Z,9.07
2023-03-30T02:27:12.005Z,10.70
2023-03-30T02:29:39.812Z,9.67
2023-03-30T02:32:06.457Z,9.37
2023-03-30T02:34:45.835Z,5.60
2023-03-30T02:37:15.487Z,10.53
2023-03-30T02:40:14.547Z,8.30
2023-03-30T02:42:55.458Z,9.67
2023-03-30T02:45:29.423Z,11.63
2023-03-30T02:48:14.362Z,10.03
2023-03-30T02:50:43.815Z,7.13
2023-03-30T02:53:29.169Z,12.30
2023-03-30T02:56:04.259Z,7.97
2023-03-30T02:58:41.703Z,8.50
2023-03-30T03:01:16.267Z,9.07
2023-03-30T03:03:46.400Z,11.30
2023-03-30T03:06:14.801Z,9.37
2023-03-30T03:08:42.650Z,7.47
2023-03-30T03:11:09.382Z,6.87
2023-03-30T03:13:37.167Z,6.97
2023-03-30T03:16:04.453Z,8.20
2023-03-30T03:18:31.483Z,4.73
2023-03-30T03:20:58.616Z,5.63
2023-03-30T03:23:25.123Z,6.73
2023-03-30T03:25:51.626Z,5.73
2023-03-30T03:28:18.232Z,5.47
2023-03-30T03:30:45.326Z,5.83
2023-03-30T03:33:12.278Z,6.37
2023-03-30T03:35:39.713Z,6.30
2023-03-30T03:38:07.788Z,6.23
2023-03-30T03:40:34.408Z,5.20
2023-03-30T03:43:00.958Z,7.73
2023-03-30T03:45:27.548Z,7.20
2023-03-30T03:47:54.445Z,8.63
2023-03-30T03:50:21.183Z,7.23
2023-03-30T03:52:47.803Z,9.20
2023-03-30T03:55:14.340Z,7.47
2023-03-30T03:57:40.867Z,6.33
2023-03-30T04:00:15.784Z,11.20
2023-03-30T04:02:43.041Z,6.97
2023-03-30T04:05:09.819Z,10.63
2023-03-30T04:07:37.075Z,8.00
2023-03-30T04:10:04.189Z,10.10
2023-03-30T04:12:30.828Z,9.53
2023-03-30T04:14:57.465Z,12.00
2023-03-30T04:17:24.068Z,8.57
2023-03-30T04:19:53.848Z,8.47
2023-03-30T04:22:20.857Z,8.03
2023-03-30T04:24:47.449Z,7.83
2023-03-30T04:27:16.982Z,8.90
2023-03-30T04:29:44.878Z,11.47
2023-03-30T04:32:12.849Z,6.90
2023-03-30T04:34:42.760Z,5.67
2023-03-30T04:37:09.764Z,8.00
2023-03-30T04:39:36.490Z,8.57
2023-03-30T04:42:04.289Z,11.20
2023-03-30T04:44:31.161Z,10.77
2023-03-30T04:46:57.691Z,8.30
2023-03-30T04:49:24.230Z,9.60
2023-03-30T04:51:51.570Z,11.40
2023-03-30T04:54:18.209Z,8.07
2023-03-30T04:56:44.730Z,9.07
2023-03-30T04:59:11.437Z,9.70
2023-03-30T05:01:38.107Z,10.23
2023-03-30T05:04:04.668Z,9.87
2023-03-30T05:06:31.245Z,7.30
2023-03-30T05:08:57.842Z,10.63
2023-03-30T05:11:24.371Z,7.37
2023-03-30T05:13:51.678Z,9.93
2023-03-30T05:16:18.368Z,11.17
2023-03-30T05:18:44.964Z,8.23
2023-03-30T05:21:11.729Z,10.87
2023-03-30T05:23:39.843Z,6.53
2023-03-30T05:26:07.755Z,11.70
2023-03-30T05:28:34.459Z,10.53
2023-03-30T05:31:01.134Z,15.20
2023-03-30T05:33:27.888Z,8.70
2023-03-30T05:35:55.698Z,12.07
2023-03-30T05:38:22.363Z,9.27
2023-03-30T05:40:51.819Z,12.80
2023-03-30T05:43:18.270Z,11.37
2023-03-30T05:45:44.869Z,10.37
2023-03-30T05:48:11.418Z,8.30
2023-03-30T05:50:38.317Z,7.80
2023-03-30T05:53:04.875Z,8.37
2023-03-30T05:55:31.670Z,9.50
2023-03-30T05:57:58.365Z,9.63
2023-03-30T06:00:25.924Z,12.27
2023-03-30T06:02:52.558Z,11.43
2023-03-30T06:05:19.063Z,12.43
2023-03-30T06:07:45.934Z,9.47
2023-03-30T06:10:13.189Z,11.83
2023-03-30T06:12:40.250Z,9.60
2023-03-30T06:15:09.244Z,8.73
2023-03-30T06:17:36.527Z,7.73
2023-03-30T06:20:08.536Z,9.50
2023-03-30T06:22:35.360Z,9.67
2023-03-30T06:25:01.926Z,9.37
2023-03-30T06:27:31.674Z,10.80
2023-03-30T06:29:58.157Z,6.30
2023-03-30T06:32:25.455Z,7.97
2023-03-30T06:34:53.210Z,7.93
2023-03-30T06:37:20.902Z,8.43
2023-03-30T06:39:47.465Z,8.83
2023-03-30T06:42:13.987Z,9.03
2023-03-30T06:44:40.498Z,6.37
2023-03-30T06:47:07.748Z,8.73
2023-03-30T06:49:34.336Z,8.20
2023-03-30T06:52:04.905Z,9.40
2023-03-30T06:54:32.823Z,8.30
2023-03-30T06:56:59.408Z,7.03
2023-03-30T06:59:26.049Z,6.77
2023-03-30T07:01:52.918Z,6.43
2023-03-30T07:04:19.641Z,8.13
2023-03-30T07:06:46.221Z,6.43
2023-03-30T07:09:13.209Z,7.03
2023-03-30T07:11:39.921Z,6.30
2023-03-30T07:14:07.611Z,6.67
2023-03-30T07:16:34.239Z,8.40
2023-03-30T07:19:00.837Z,6.43
2023-03-30T07:21:27.399Z,6.80
2023-03-30T07:23:53.924Z,10.27
2023-03-30T07:26:21.421Z,8.20
2023-03-30T07:28:48.119Z,7.30
2023-03-30T07:31:14.970Z,7.47
2023-03-30T07:33:41.995Z,5.97
2023-03-30T07:36:08.860Z,6.43
2023-03-30T07:38:35.390Z,7.67
2023-03-30T07:41:02.312Z,5.03
2023-03-30T07:43:30.093Z,7.67
2023-03-30T07:45:56.827Z,3.97
2023-03-30T07:48:23.933Z,4.80
2023-03-30T07:50:51.928Z,3.73
2023-03-30T07:53:18.457Z,5.63
2023-03-30T07:55:44.948Z,2.73
2023-03-30T07:58:11.687Z,4.10
2023-03-30T08:00:38.578Z,4.23
2023-03-30T08:03:05.143Z,4.23
2023-03-30T08:05:31.932Z,3.03
2023-03-30T08:07:58.470Z,2.40
2023-03-30T08:10:24.963Z,3.63
2023-03-30T08:12:51.684Z,2.20
2023-03-30T08:15:18.262Z,3.13
2023-03-30T08:17:44.835Z,3.30
2023-03-30T08:20:11.836Z,5.10
2023-03-30T08:22:38.828Z,2.93
2023-03-30T08:25:05.539Z,2.97
2023-03-30T08:27:32.517Z,2.53
2023-03-30T08:29:59.095Z,4.43
2023-03-30T08:32:25.596Z,6.97
2023-03-30T08:34:54.047Z,3.60
2023-03-30T08:37:20.548Z,4.13
2023-03-30T08:39:47.061Z,3.77
2023-03-30T08:42:27.500Z,3.57
2023-03-30T08:44:54.895Z,3.33
2023-03-30T08:47:27.155Z,4.60
2023-03-30T08:49:58.420Z,3.90
2023-03-30T08:52:24.961Z,3.67
2023-03-30T08:54:52.325Z,4.37
2023-03-30T08:57:22.573Z,7.80
2023-03-30T08:59:52.139Z,3.85
2023-03-30T09:02:38.193Z,5.97
2023-03-30T09:05:07.976Z,5.83
2023-03-30T09:07:38.469Z,3.15
2023-03-30T09:10:08.765Z,3.83
2023-03-30T09:12:42.834Z,3.23
2023-03-30T09:15:13.799Z,3.30
2023-03-30T09:17:41.712Z,4.93
2023-03-30T09:20:12.510Z,3.97
2023-03-30T09:22:39.759Z,5.13
2023-03-30T09:25:12.189Z,3.72
2023-03-30T09:27:59.099Z,3.45
2023-03-30T09:30:26.797Z,4.57
2023-03-30T09:33:00.385Z,4.13
2023-03-30T09:35:29.277Z,3.45
2023-03-30T09:37:55.893Z,2.50
2023-03-30T09:40:37.553Z,5.75
2023-03-30T09:43:23.015Z,5.85
2023-03-30T09:45:49.549Z,5.55
2023-03-30T09:48:16.570Z,2.30
2023-03-30T09:50:43.813Z,2.35
2023-03-30T09:53:26.408Z,1.90
2023-03-30T09:56:00.502Z,3.60
2023-03-30T09:58:31.107Z,4.20
2023-03-30T10:01:02.069Z,2.88
2023-03-30T10:03:29.343Z,3.35
2023-03-30T10:06:25.320Z,2.88
2023-03-30T10:08:52.452Z,3.40
2023-03-30T10:11:22.713Z,4.47
2023-03-30T10:13:49.457Z,4.07
2023-03-30T10:16:34.247Z,2.15
2023-03-30T10:19:04.605Z,4.28
2023-03-30T10:21:31.874Z,5.65
2023-03-30T10:24:18.763Z,2.50
2023-03-30T10:26:45.990Z,3.10
2023-03-30T10:29:13.705Z,1.58
2023-03-30T10:31:42.633Z,2.95
2023-03-30T10:34:23.886Z,2.47
2023-03-30T10:36:53.253Z,3.20
2023-03-30T10:39:25.466Z,3.97
2023-03-30T10:41:51.957Z,3.20
2023-03-30T10:44:30.804Z,3.72
2023-03-30T10:47:23.768Z,1.27
2023-03-30T10:49:54.121Z,3.90
2023-03-30T10:52:26.697Z,1.63
2023-03-30T10:54:53.262Z,1.02
2023-03-30T10:57:21.087Z,6.85
2023-03-30T10:59:59.820Z,1.95
2023-03-30T11:02:26.758Z,3.60
2023-03-30T11:04:59.051Z,3.92
2023-03-30T11:07:55.353Z,1.40
2023-03-30T11:10:29.233Z,3.38
2023-03-30T11:12:57.177Z,4.50
2023-03-30T11:15:37.857Z,4.38
2023-03-30T11:18:05.957Z,2.00
2023-03-30T11:20:33.716Z,5.25
2023-03-30T11:23:00.455Z,1.75
2023-03-30T11:25:30.934Z,2.63
2023-03-30T11:28:00.136Z,4.68
2023-03-30T11:30:27.826Z,3.78
2023-03-30T11:32:54.534Z,6.03
2023-03-30T11:35:21.240Z,4.15
2023-03-30T11:38:06.609Z,4.90
2023-03-30T11:40:41.227Z,2.63
2023-03-30T11:43:09.864Z,8.85
2023-03-30T11:45:36.403Z,5.55
2023-03-30T11:48:15.223Z,3.67
2023-03-30T11:50:45.850Z,4.28
2023-03-30T11:53:24.457Z,3.53
2023-03-30T11:56:13.967Z,4.40
2023-03-30T11:58:42.516Z,3.72
2023-03-30T12:01:27.903Z,3.90
2023-03-30T12:04:14.700Z,4.22
2023-03-30T12:06:42.102Z,4.60
2023-03-30T12:09:19.237Z,7.15
2023-03-30T12:11:46.644Z,7.13
2023-03-30T12:14:23.671Z,4.47
2023-03-30T12:16:51.259Z,5.68
2023-03-30T12:19:25.430Z,4.70
2023-03-30T12:21:59.481Z,6.00
2023-03-30T12:24:28.300Z,5.63
2023-03-30T12:27:05.269Z,3.78
2023-03-30T12:32:22.357Z,3.58
2023-03-30T12:34:49.036Z,4.00
2023-03-30T12:37:21.283Z,4.25
2023-03-30T12:40:26.214Z,3.83
2023-03-30T12:42:55.834Z,2.80
2023-03-30T12:45:27.752Z,4.07
2023-03-30T12:47:54.263Z,5.03
2023-03-30T12:50:21.246Z,2.60
2023-03-30T12:52:47.808Z,3.08
2023-03-30T12:55:33.223Z,5.28
2023-03-30T12:57:59.691Z,5.25
2023-03-30T13:00:29.825Z,3.38
2023-03-30T13:03:15.477Z,4.50
2023-03-30T13:05:42.893Z,3.72
2023-03-30T13:08:10.857Z,4.97
2023-03-30T13:10:38.913Z,8.73
2023-03-30T13:13:06.187Z,4.43
2023-03-30T13:15:52.105Z,5.43
2023-03-30T13:18:18.595Z,4.85
2023-03-30T13:20:47.898Z,5.25
2023-03-30T13:23:14.518Z,4.25
2023-03-30T13:25:45.402Z,3.28
2023-03-30T13:28:30.534Z,4.72
2023-03-30T13:30:59.314Z,5.80
2023-03-30T13:33:25.924Z,5.95
2023-03-30T13:35:55.177Z,6.93
2023-03-30T13:38:21.774Z,8.63
2023-03-30T13:41:03.816Z,8.13
2023-03-30T13:43:50.799Z,4.60
2023-03-30T13:46:35.549Z,5.57
2023-03-30T13:49:08.233Z,6.18
2023-03-30T13:51:35.519Z,8.38
2023-03-30T13:54:07.307Z,8.57
2023-03-30T13:56:35.242Z,5.60
2023-03-30T13:59:10.640Z,8.43
2023-03-30T14:01:39.657Z,6.63
2023-03-30T14:04:06.887Z,8.77
2023-03-30T14:06:36.288Z,5.75
2023-03-30T14:09:05.912Z,7.38
2023-03-30T14:11:32.458Z,10.60
2023-03-30T14:13:59.024Z,5.43
2023-03-30T14:16:26.258Z,5.20
2023-03-30T14:18:53.242Z,5.28
2023-03-30T14:21:20.719Z,8.18
2023-03-30T14:23:53.414Z,5.38
2023-03-30T14:26:19.941Z,6.82
2023-03-30T14:28:46.927Z,8.02
2023-03-30T14:31:20.322Z,7.70
2023-03-30T14:33:47.017Z,7.65
2023-03-30T14:36:17.043Z,7.40
2023-03-30T14:38:44.010Z,7.32
2023-03-30T14:41:13.434Z,8.45
2023-03-30T14:43:40.795Z,8.68
2023-03-30T14:46:10.200Z,7.47
2023-03-30T14:48:37.713Z,7.10
2023-03-30T14:51:07.831Z,7.22
2023-03-30T14:53:34.351Z,5.97
2023-03-30T14:56:01.113Z,5.80
2023-03-30T14:58:31.738Z,11.82
2023-03-30T15:01:03.677Z,11.20
2023-03-30T15:03:33.889Z,7.30
2023-03-30T15:06:04.022Z,9.55
2023-03-30T15:08:31.425Z,9.40
2023-03-30T15:11:08.220Z,8.30
2023-03-30T15:13:39.395Z,11.80
2023-03-30T15:16:06.203Z,10.63
2023-03-30T15:18:33.214Z,13.25
2023-03-30T15:20:59.860Z,11.93
2023-03-30T15:23:29.983Z,14.45
2023-03-30T15:25:57.447Z,11.05
2023-03-30T15:28:24.197Z,12.80
2023-03-30T15:30:51.494Z,16.73
2023-03-30T15:33:38.341Z,8.82
2023-03-30T15:36:12.499Z,10.82
2023-03-30T15:38:52.658Z,10.27
2023-03-30T15:41:22.373Z,11.35
2023-03-30T15:43:55.947Z,14.23
2023-03-30T15:46:22.505Z,13.30
2023-03-30T15:48:50.125Z,10.35
2023-03-30T15:51:21.379Z,12.18
2023-03-30T15:53:53.738Z,12.95
2023-03-30T15:56:23.682Z,12.10
2023-03-30T15:58:51.069Z,14.38
2023-03-30T16:01:17.682Z,12.82
2023-03-30T16:03:51.555Z,16.50
2023-03-30T16:06:18.097Z,13.65
2023-03-30T16:08:45.331Z,14.18
2023-03-30T16:11:11.908Z,11.82
2023-03-30T16:13:45.603Z,15.82
2023-03-30T16:16:14.041Z,13.30
2023-03-30T16:18:42.491Z,13.30
2023-03-30T16:21:11.047Z,15.98
2023-03-30T16:23:37.940Z,12.65
2023-03-30T16:26:04.988Z,12.48
2023-03-30T16:28:32.005Z,10.70
2023-03-30T16:30:59.844Z,14.43
2023-03-30T16:33:26.331Z,10.07
2023-03-30T16:35:52.888Z,15.52
2023-03-30T16:38:19.478Z,17.15
2023-03-30T16:40:47.520Z,15.40
2023-03-30T16:43:14.064Z,15.98
2023-03-30T16:45:40.672Z,14.50
2023-03-30T16:48:07.272Z,11.43
2023-03-30T16:50:33.772Z,17.25
2023-03-30T16:53:00.352Z,16.95
2023-03-30T16:55:26.871Z,15.32
2023-03-30T16:57:53.341Z,19.95
2023-03-30T17:00:24.718Z,15.00
2023-03-30T17:02:51.824Z,18.25
2023-03-30T17:05:18.659Z,16.02
2023-03-30T17:07:45.473Z,19.58
2023-03-30T17:10:28.689Z,14.50
2023-03-30T17:12:55.567Z,18.13
2023-03-30T17:15:22.296Z,16.88
2023-03-30T17:17:48.962Z,21.02
2023-03-30T17:20:22.197Z,15.18
2023-03-30T17:22:49.024Z,19.00
2023-03-30T17:25:15.876Z,19.17
2023-03-30T17:27:42.377Z,19.95
2023-03-30T17:30:15.789Z,17.20
2023-03-30T17:32:42.444Z,18.10
2023-03-30T17:35:10.511Z,15.18
2023-03-30T17:37:37.103Z,18.98
2023-03-30T17:40:38.909Z,16.00
2023-03-30T17:43:08.350Z,21.70
2023-03-30T17:45:35.204Z,21.75
2023-03-30T17:48:02.217Z,21.98
2023-03-30T17:50:30.014Z,26.23
2023-03-30T17:52:56.684Z,22.98
2023-03-30T17:55:24.041Z,21.88
2023-03-30T17:57:51.696Z,21.00
2023-03-30T18:00:18.509Z,16.17
2023-03-30T18:02:45.098Z,15.05
2023-03-30T18:05:11.824Z,18.83
2023-03-30T18:07:38.431Z,20.25
2023-03-30T18:10:18.719Z,19.13
2023-03-30T18:12:45.320Z,15.93
2023-03-30T18:15:11.980Z,18.45
2023-03-30T18:17:38.542Z,16.98
2023-03-30T18:20:24.228Z,15.40
2023-03-30T18:22:50.855Z,14.25
2023-03-30T18:25:29.396Z,16.35
2023-03-30T18:27:58.498Z,13.63
2023-03-30T18:30:37.617Z,15.35
2023-03-30T18:33:04.442Z,17.10
2023-03-30T18:35:31.449Z,15.88
2023-03-30T18:37:58.101Z,15.80
2023-03-30T18:40:26.009Z,18.52
2023-03-30T18:42:52.723Z,24.48
2023-03-30T18:45:22.401Z,19.75
2023-03-30T18:47:48.963Z,23.67
2023-03-30T18:50:16.873Z,22.58
2023-03-30T18:52:43.391Z,23.95
2023-03-30T18:55:09.991Z,23.50
2023-03-30T18:57:36.627Z,18.13
2023-03-30T19:00:05.828Z,18.38
2023-03-30T19:02:32.435Z,20.88
2023-03-30T19:04:59.403Z,19.08
2023-03-30T19:07:25.944Z,23.23
2023-03-30T19:09:52.570Z,20.45
2023-03-30T19:12:19.066Z,18.17
2023-03-30T19:14:45.766Z,18.67
2023-03-30T19:17:12.490Z,20.52
2023-03-30T19:19:39.010Z,19.60
2023-03-30T19:22:05.609Z,16.75
2023-03-30T19:24:32.232Z,14.00
2023-03-30T19:26:58.806Z,18.75
2023-03-30T19:29:25.441Z,17.38
2023-03-30T19:31:53.003Z,17.13
2023-03-30T19:34:19.468Z,21.63
2023-03-30T19:36:46.004Z,14.43
2023-03-30T19:39:12.610Z,20.65
2023-03-30T19:41:39.112Z,19.15
2023-03-30T19:44:05.631Z,19.00
2023-03-30T19:46:32.195Z,16.38
2023-03-30T19:48:58.710Z,17.85
2023-03-30T19:51:25.213Z,17.17
2023-03-30T19:53:51.759Z,17.33
2023-03-30T19:56:18.387Z,19.60
2023-03-30T19:58:45.346Z,17.23
2023-03-30T20:01:11.999Z,14.48
2023-03-30T20:03:38.724Z,16.98
2023-03-30T20:06:08.281Z,16.30
2023-03-30T20:08:35.282Z,16.08
2023-03-30T20:11:01.987Z,13.85
2023-03-30T20:13:28.556Z,15.00
2023-03-30T20:15:55.928Z,16.13
2023-03-30T20:18:22.680Z,15.50
2023-03-30T20:20:49.197Z,19.08
2023-03-30T20:23:15.884Z,16.80
2023-03-30T20:25:46.730Z,14.65
2023-03-30T20:28:13.276Z,16.02
2023-03-30T20:30:39.782Z,16.25
2023-03-30T20:33:08.822Z,18.77
2023-03-30T20:35:36.375Z,20.42
2023-03-30T20:38:04.665Z,19.58
2023-03-30T20:40:31.445Z,17.63
2023-03-30T20:43:03.347Z,20.67
2023-03-30T20:45:30.822Z,17.90
2023-03-30T20:47:57.643Z,15.88
2023-03-30T20:50:24.199Z,17.25
2023-03-30T20:52:52.822Z,14.07
2023-03-30T20:55:19.388Z,15.60
2023-03-30T20:57:46.008Z,16.65
2023-03-30T21:00:12.935Z,13.00
2023-03-30T21:02:39.456Z,12.87
2023-03-30T21:05:06.656Z,14.98
2023-03-30T21:07:33.997Z,15.95
2023-03-30T21:10:00.519Z,16.23
2023-03-30T21:12:27.292Z,13.73
2023-03-30T21:14:53.841Z,14.93
2023-03-30T21:17:20.489Z,15.90
2023-03-30T21:19:46.992Z,15.13
2023-03-30T21:22:13.614Z,14.43
2023-03-30T21:24:40.121Z,15.87
2023-03-30T21:27:06.635Z,13.95
2023-03-30T21:29:33.299Z,14.55
2023-03-30T21:31:59.784Z,13.88
2023-03-30T21:34:26.280Z,14.40
2023-03-30T21:36:53.278Z,12.47
2023-03-30T21:39:19.962Z,13.30
2023-03-30T21:41:46.541Z,16.80
2023-03-30T21:44:13.055Z,16.08
2023-03-30T21:46:39.541Z,14.97
2023-03-30T21:49:06.127Z,15.13
2023-03-30T21:51:32.650Z,18.27
2023-03-30T21:53:59.313Z,15.27
2023-03-30T21:56:26.656Z,13.27
2023-03-30T21:58:53.185Z,18.65
2023-03-30T22:01:19.990Z,15.50
2023-03-30T22:03:46.810Z,16.33
2023-03-30T22:06:13.861Z,15.20
2023-03-30T22:08:40.646Z,13.77
2023-03-30T22:11:08.059Z,17.30
2023-03-30T22:13:34.583Z,15.13
2023-03-30T22:16:01.964Z,14.57
2023-03-30T22:18:28.605Z,18.10
2023-03-30T22:20:58.225Z,17.00
2023-03-30T22:23:24.782Z,17.23
2023-03-30T22:25:51.552Z,17.77
2023-03-30T22:28:18.017Z,18.97
2023-03-30T22:30:44.658Z,21.53
2023-03-30T22:33:11.488Z,21.47
2023-03-30T22:35:38.732Z,20.02
2023-03-30T22:38:05.805Z,20.08
2023-03-30T22:40:32.581Z,19.63
2023-03-30T22:42:59.112Z,17.97
2023-03-30T22:45:25.980Z,23.30
2023-03-30T22:47:52.563Z,21.67
2023-03-30T22:50:19.078Z,19.73
2023-03-30T22:52:45.588Z,18.90
2023-03-30T22:55:12.174Z,20.40
2023-03-30T22:57:38.761Z,21.27
2023-03-30T23:00:11.971Z,19.63
2023-03-30T23:02:38.873Z,20.97
2023-03-30T23:05:05.967Z,19.37
2023-03-30T23:07:34.769Z,19.92
2023-03-30T23:10:04.250Z,21.20
2023-03-30T23:12:31.811Z,22.73
2023-03-30T23:14:58.590Z,21.98
2023-03-30T23:17:26.267Z,22.37
2023-03-30T23:19:58.209Z,21.70
2023-03-30T23:22:25.113Z,21.27
2023-03-30T23:24:51.621Z,21.33
2023-03-30T23:27:18.195Z,20.27
2023-03-30T23:29:44.681Z,19.63
2023-03-30T23:32:11.330Z,22.00
2023-03-30T23:34:37.808Z,19.90
2023-03-30T23:37:04.360Z,19.40
2023-03-30T23:39:31.668Z,18.23
2023-03-30T23:41:58.174Z,22.67
2023-03-30T23:44:24.685Z,19.13
2023-03-30T23:46:51.345Z,20.93
2023-03-30T23:49:18.315Z,21.43
2023-03-30T23:51:45.023Z,20.83
2023-03-30T23:54:11.936Z,19.95
2023-03-30T23:56:38.574Z,20.23
2023-03-30T23:59:05.450Z,22.60
